createdAt,value
2023-01-25T00:02:16.084Z,99829.84
2023-01-25T00:04:50.956Z,99832.59
2023-01-25T00:07:23.506Z,99832.59
2023-01-25T00:09:55.849Z,99832.13
2023-01-25T00:12:50.366Z,99821.00
2023-01-25T00:15:22.563Z,99814.66
2023-01-25T00:17:55.346Z,99813.78
2023-01-25T00:20:27.689Z,99814.91
2023-01-25T00:23:00.103Z,99821.25
2023-01-25T00:25:32.848Z,99818.63
2023-01-25T00:28:05.253Z,99823.50
2023-01-25T00:30:38.371Z,99816.94
2023-01-25T00:33:16.018Z,99812.06
2023-01-25T00:35:49.657Z,99805.47
2023-01-25T00:38:34.191Z,99805.59
2023-01-25T00:41:08.736Z,99808.66
2023-01-25T00:43:41.014Z,99807.84
2023-01-25T00:46:17.075Z,99818.75
2023-01-25T00:48:54.214Z,99810.59
2023-01-25T00:51:26.371Z,99796.31
2023-01-25T00:53:59.423Z,99794.69
2023-01-25T00:56:31.754Z,99801.88
2023-01-25T00:59:04.253Z,99790.41
2023-01-25T01:01:37.012Z,99787.91
2023-01-25T01:04:09.104Z,99779.84
2023-01-25T01:06:43.098Z,99783.38
2023-01-25T01:09:17.960Z,99777.81
2023-01-25T01:11:50.378Z,99779.28
2023-01-25T01:14:24.399Z,99782.25
2023-01-25T01:16:58.004Z,99772.94
2023-01-25T01:19:31.228Z,99788.91
2023-01-25T01:22:03.515Z,99787.34
2023-01-25T01:24:36.227Z,99790.06
2023-01-25T01:27:08.890Z,99781.00
2023-01-25T01:29:41.161Z,99790.38
2023-01-25T01:32:13.346Z,99775.09
2023-01-25T01:34:46.194Z,99782.34
2023-01-25T01:37:18.103Z,99787.34
2023-01-25T01:39:52.568Z,99787.34
2023-01-25T01:42:24.503Z,99784.94
2023-01-25T01:44:57.772Z,99772.25
2023-01-25T01:47:45.907Z,99772.00
2023-01-25T01:50:24.095Z,99780.63
2023-01-25T01:52:57.462Z,99769.63
2023-01-25T01:55:30.463Z,99776.91
2023-01-25T01:58:03.687Z,99770.44
2023-01-25T02:00:40.481Z,99771.69
2023-01-25T02:03:16.827Z,99761.59
2023-01-25T02:06:17.491Z,99757.72
2023-01-25T02:08:50.048Z,99765.00
2023-01-25T02:11:23.174Z,99769.06
2023-01-25T02:13:57.310Z,99767.72
2023-01-25T02:16:30.304Z,99769.75
2023-01-25T02:19:03.675Z,99751.97
2023-01-25T02:21:44.847Z,99767.63
2023-01-25T02:24:27.858Z,99759.09
2023-01-25T02:27:00.030Z,99762.41
2023-01-25T02:29:33.849Z,99767.72
2023-01-25T02:32:06.838Z,99765.00
2023-01-25T02:34:39.587Z,99757.06
2023-01-25T02:37:15.133Z,99760.69
2023-01-25T02:39:48.478Z,99765.66
2023-01-25T02:42:20.444Z,99768.84
2023-01-25T02:44:53.734Z,99766.78
2023-01-25T02:47:25.632Z,99754.78
2023-01-25T02:49:58.393Z,99766.13
2023-01-25T02:52:30.353Z,99762.81
2023-01-25T02:55:03.803Z,99755.81
2023-01-25T02:57:35.932Z,99756.47
2023-01-25T03:00:09.478Z,99760.47
2023-01-25T03:02:41.493Z,99753.88
2023-01-25T03:05:14.372Z,99747.00
2023-01-25T03:07:46.335Z,99747.31
2023-01-25T03:10:19.124Z,99749.78
2023-01-25T03:12:52.141Z,99749.50
2023-01-25T03:15:27.695Z,99744.69
2023-01-25T03:18:02.842Z,99741.66
2023-01-25T03:20:35.488Z,99748.13
2023-01-25T03:23:08.230Z,99735.03
2023-01-25T03:25:40.560Z,99735.72
2023-01-25T03:28:18.443Z,99733.22
2023-01-25T03:30:54.134Z,99728.72
2023-01-25T03:33:26.237Z,99730.16
2023-01-25T03:35:59.800Z,99740.72
2023-01-25T03:38:33.004Z,99727.22
2023-01-25T03:41:06.144Z,99719.09
2023-01-25T03:43:40.343Z,99712.53
2023-01-25T03:46:12.375Z,99713.66
2023-01-25T03:48:45.509Z,99715.25
2023-01-25T03:51:17.429Z,99716.25
2023-01-25T03:53:50.300Z,99710.16
2023-01-25T03:56:24.294Z,99710.03
2023-01-25T03:59:04.000Z,99706.97
2023-01-25T04:01:38.088Z,99704.25
2023-01-25T04:04:10.309Z,99712.16
2023-01-25T04:06:45.191Z,99715.13
2023-01-25T04:09:17.312Z,99711.94
2023-01-25T04:11:55.048Z,99711.69
2023-01-25T04:14:43.308Z,99712.50
2023-01-25T04:17:20.451Z,99718.75
2023-01-25T04:20:19.415Z,99723.94
2023-01-25T04:22:53.492Z,99719.97
2023-01-25T04:25:29.601Z,99707.53
2023-01-25T04:28:04.302Z,99710.81
2023-01-25T04:30:36.758Z,99712.38
2023-01-25T04:33:08.735Z,99702.53
2023-01-25T04:35:41.510Z,99695.28
2023-01-25T04:38:14.430Z,99702.22
2023-01-25T04:40:49.452Z,99704.34
2023-01-25T04:43:22.511Z,99694.94
2023-01-25T04:46:03.206Z,99698.00
2023-01-25T04:48:37.051Z,99695.97
2023-01-25T04:51:12.385Z,99697.44
2023-01-25T04:53:44.732Z,99690.88
2023-01-25T04:56:17.598Z,99695.53
2023-01-25T04:58:57.606Z,99694.50
2023-01-25T05:01:33.694Z,99700.59
2023-01-25T05:04:09.404Z,99691.53
2023-01-25T05:06:46.018Z,99693.47
2023-01-25T05:09:18.511Z,99694.16
2023-01-25T05:11:53.366Z,99696.53
2023-01-25T05:14:45.683Z,99686.78
2023-01-25T05:17:18.885Z,99679.69
2023-01-25T05:19:50.801Z,99667.88
2023-01-25T05:22:26.848Z,99681.47
2023-01-25T05:24:59.294Z,99671.06
2023-01-25T05:27:31.823Z,99672.75
2023-01-25T05:30:23.698Z,99682.69
2023-01-25T05:33:05.181Z,99683.28
2023-01-25T05:35:38.399Z,99678.72
2023-01-25T05:38:10.905Z,99668.13
2023-01-25T05:40:42.835Z,99679.53
2023-01-25T05:43:15.620Z,99686.00
2023-01-25T05:45:53.540Z,99681.25
2023-01-25T05:48:26.408Z,99682.38
2023-01-25T05:50:59.886Z,99683.97
2023-01-25T05:53:34.023Z,99688.38
2023-01-25T05:56:08.635Z,99675.69
2023-01-25T05:58:40.667Z,99671.13
2023-01-25T06:01:13.542Z,99670.72
2023-01-25T06:03:53.893Z,99675.00
2023-01-25T06:06:28.453Z,99676.28
2023-01-25T06:09:01.838Z,99676.81
2023-01-25T06:11:34.752Z,99682.03
2023-01-25T06:14:06.904Z,99679.88
2023-01-25T06:16:39.724Z,99679.06
2023-01-25T06:19:31.993Z,99675.00
2023-01-25T06:22:24.888Z,99674.69
2023-01-25T06:24:57.576Z,99674.31
2023-01-25T06:27:29.903Z,99674.56
2023-01-25T06:30:02.001Z,99674.88
2023-01-25T06:32:36.192Z,99677.94
2023-01-25T06:35:09.603Z,99681.38
2023-01-25T06:37:42.597Z,99671.13
2023-01-25T06:40:14.829Z,99673.75
2023-01-25T06:42:47.593Z,99678.84
2023-01-25T06:45:20.005Z,99669.22
2023-01-25T06:47:52.482Z,99669.78
2023-01-25T06:50:27.946Z,99666.63
2023-01-25T06:52:59.916Z,99662.53
2023-01-25T06:55:35.638Z,99657.88
2023-01-25T06:58:08.301Z,99666.63
2023-01-25T07:00:41.016Z,99662.78
2023-01-25T07:03:14.586Z,99666.38
2023-01-25T07:05:46.441Z,99658.94
2023-01-25T07:08:21.848Z,99660.84
2023-01-25T07:11:00.055Z,99661.53
2023-01-25T07:13:35.027Z,99665.63
2023-01-25T07:16:11.284Z,99662.53
2023-01-25T07:18:44.488Z,99659.25
2023-01-25T07:21:24.639Z,99663.44
2023-01-25T07:24:01.762Z,99659.81
2023-01-25T07:26:35.059Z,99656.22
2023-01-25T07:29:07.874Z,99656.44
2023-01-25T07:31:41.859Z,99661.44
2023-01-25T07:34:18.652Z,99652.47
2023-01-25T07:36:51.444Z,99646.91
2023-01-25T07:39:24.554Z,99648.50
2023-01-25T07:41:56.868Z,99654.72
2023-01-25T07:47:28.784Z,99643.31
2023-01-25T07:50:01.406Z,99648.72
2023-01-25T07:52:33.298Z,99651.34
2023-01-25T07:55:06.551Z,99655.66
2023-01-25T07:57:38.895Z,99652.84
2023-01-25T08:00:13.432Z,99640.91
2023-01-25T08:02:45.433Z,99652.56
2023-01-25T08:05:17.989Z,99649.97
2023-01-25T08:07:50.640Z,99649.50
2023-01-25T08:10:23.391Z,99645.53
2023-01-25T08:12:55.369Z,99641.69
2023-01-25T08:15:27.936Z,99637.72
2023-01-25T08:18:00.342Z,99639.19
2023-01-25T08:20:32.857Z,99632.84
2023-01-25T08:23:05.294Z,99636.13
2023-01-25T08:25:39.891Z,99634.91
2023-01-25T08:28:11.857Z,99642.59
2023-01-25T08:30:56.397Z,99635.44
2023-01-25T08:33:29.487Z,99639.06
2023-01-25T08:36:02.278Z,99640.34
2023-01-25T08:38:34.748Z,99634.28
2023-01-25T08:41:16.987Z,99622.16
2023-01-25T08:43:48.952Z,99617.53
2023-01-25T08:46:23.237Z,99623.66
2023-01-25T08:48:56.959Z,99621.19
2023-01-25T08:51:31.770Z,99608.84
2023-01-25T08:54:11.745Z,99620.81
2023-01-25T08:56:45.161Z,99615.34
2023-01-25T08:59:17.598Z,99622.53
2023-01-25T09:01:50.429Z,99618.97
2023-01-25T09:04:25.305Z,99621.78
2023-01-25T09:06:57.917Z,99629.53
2023-01-25T09:09:30.309Z,99630.56
2023-01-25T09:12:02.892Z,99626.06
2023-01-25T09:14:34.888Z,99617.41
2023-01-25T09:17:07.987Z,99615.72
2023-01-25T09:19:42.112Z,99618.31
2023-01-25T09:22:14.775Z,99614.56
2023-01-25T09:24:52.061Z,99625.81
2023-01-25T09:27:24.740Z,99617.53
2023-01-25T09:30:16.544Z,99617.88
2023-01-25T09:32:51.195Z,99624.69
2023-01-25T09:35:23.651Z,99620.03
2023-01-25T09:38:06.239Z,99617.47
2023-01-25T09:40:41.515Z,99613.50
2023-01-25T09:43:41.804Z,99619.72
2023-01-25T09:46:50.587Z,99620.91
2023-01-25T09:50:13.925Z,99619.25
2023-01-25T09:53:13.055Z,99618.41
2023-01-25T09:55:51.307Z,99622.53
2023-01-25T09:58:50.586Z,99620.06
2023-01-25T10:01:50.178Z,99617.41
2023-01-25T10:04:35.927Z,99615.44
2023-01-25T10:07:26.561Z,99612.81
2023-01-25T10:10:11.909Z,99616.34
2023-01-25T10:12:44.923Z,99623.75
2023-01-25T10:15:23.754Z,99606.97
2023-01-25T10:18:28.785Z,99606.97
2023-01-25T10:21:29.500Z,99608.28
2023-01-25T10:24:25.906Z,99594.84
2023-01-25T10:27:33.411Z,99598.47
2023-01-25T10:30:28.121Z,99593.66
2023-01-25T10:33:11.391Z,99586.50
2023-01-25T10:35:47.951Z,99591.00
2023-01-25T10:38:45.765Z,99582.97
2023-01-25T10:41:38.747Z,99586.28
2023-01-25T10:44:22.290Z,99580.75
2023-01-25T10:47:03.499Z,99579.22
2023-01-25T10:49:55.183Z,99563.38
2023-01-25T10:52:30.580Z,99565.50
2023-01-25T10:55:15.709Z,99559.16
2023-01-25T10:57:59.356Z,99549.19
2023-01-25T11:00:40.400Z,99542.75
2023-01-25T11:03:22.048Z,99556.66
2023-01-25T11:05:56.852Z,99556.97
2023-01-25T11:08:39.763Z,99553.38
2023-01-25T11:11:32.636Z,99548.31
2023-01-25T11:14:18.761Z,99540.00
2023-01-25T11:16:51.372Z,99543.31
2023-01-25T11:19:31.936Z,99540.81
2023-01-25T11:22:24.506Z,99538.88
2023-01-25T11:24:56.499Z,99526.00
2023-01-25T11:27:29.558Z,99523.31
2023-01-25T11:30:19.262Z,99512.09
2023-01-25T11:32:52.163Z,99512.47
2023-01-25T11:35:32.390Z,99512.06
2023-01-25T11:38:18.746Z,99497.88
2023-01-25T11:41:18.058Z,99506.47
2023-01-25T11:44:44.863Z,99503.78
2023-01-25T11:47:40.681Z,99494.69
2023-01-25T11:50:34.366Z,99495.56
2023-01-25T11:53:34.070Z,99487.81
2023-01-25T11:56:31.282Z,99487.91
2023-01-25T11:59:43.445Z,99482.50
2023-01-25T12:03:03.061Z,99477.19
2023-01-25T12:05:45.125Z,99469.72
2023-01-25T12:08:45.914Z,99458.31
2023-01-25T12:11:42.120Z,99449.47
2023-01-25T12:14:44.195Z,99437.88
2023-01-25T12:17:58.000Z,99437.59
2023-01-25T12:20:41.835Z,99427.31
2023-01-25T12:23:51.600Z,99428.06
2023-01-25T12:26:37.510Z,99412.75
2023-01-25T12:29:48.613Z,99414.78
2023-01-25T12:32:59.493Z,99399.50
2023-01-25T12:35:43.851Z,99390.00
2023-01-25T12:39:01.038Z,99386.25
2023-01-25T12:41:57.674Z,99378.00
2023-01-25T12:44:43.686Z,99379.78
2023-01-25T12:48:03.803Z,99375.53
2023-01-25T12:50:42.932Z,99365.75
2023-01-25T12:53:22.383Z,99356.34
2023-01-25T12:55:56.004Z,99362.72
2023-01-25T12:58:52.981Z,99364.66
2023-01-25T13:01:38.924Z,99361.47
2023-01-25T13:04:39.583Z,99351.22
2023-01-25T13:07:44.764Z,99357.81
2023-01-25T13:10:27.022Z,99353.81
2023-01-25T13:13:05.536Z,99348.00
2023-01-25T13:15:39.808Z,99351.22
2023-01-25T13:18:33.931Z,99348.06
2023-01-25T13:21:11.423Z,99344.00
2023-01-25T13:23:50.540Z,99338.06
2023-01-25T13:26:22.427Z,99334.38
2023-01-25T13:29:00.689Z,99340.09
2023-01-25T13:31:51.003Z,99335.22
2023-01-25T13:34:53.947Z,99337.38
2023-01-25T13:37:29.791Z,99330.31
2023-01-25T13:40:07.268Z,99332.53
2023-01-25T13:42:40.326Z,99321.91
2023-01-25T13:45:15.024Z,99326.13
2023-01-25T13:48:09.253Z,99319.56
2023-01-25T13:50:52.737Z,99321.78
2023-01-25T13:53:29.506Z,99316.09
2023-01-25T13:56:03.295Z,99319.63
2023-01-25T13:58:48.005Z,99308.56
2023-01-25T14:01:23.990Z,99317.44
2023-01-25T14:04:03.215Z,99314.56
2023-01-25T14:06:40.012Z,99305.13
2023-01-25T14:09:20.742Z,99310.50
2023-01-25T14:12:01.557Z,99304.94
2023-01-25T14:14:35.472Z,99302.47
2023-01-25T14:17:22.352Z,99308.88
2023-01-25T14:19:55.828Z,99306.09
2023-01-25T14:22:31.678Z,99294.66
2023-01-25T14:25:22.453Z,99297.69
2023-01-25T14:27:57.850Z,99291.72
2023-01-25T14:30:33.815Z,99283.28
2023-01-25T14:33:44.749Z,99297.47
2023-01-25T14:36:25.124Z,99301.44
2023-01-25T14:38:58.891Z,99296.69
2023-01-25T14:41:59.876Z,99294.75
2023-01-25T14:44:34.369Z,99294.13
2023-01-25T14:47:32.213Z,99294.63
2023-01-25T14:50:37.019Z,99295.78
2023-01-25T14:53:20.930Z,99289.84
2023-01-25T14:55:53.656Z,99291.72
2023-01-25T14:58:28.999Z,99285.69
2023-01-25T15:01:03.639Z,99298.56
2023-01-25T15:03:44.669Z,99299.22
2023-01-25T15:06:17.365Z,99291.06
2023-01-25T15:08:49.496Z,99291.91
2023-01-25T15:11:46.546Z,99278.84
2023-01-25T15:14:22.096Z,99276.50
2023-01-25T15:16:56.398Z,99278.44
2023-01-25T15:19:30.792Z,99277.56
2023-01-25T15:22:05.541Z,99284.81
2023-01-25T15:24:47.227Z,99273.72
2023-01-25T15:27:22.762Z,99280.06
2023-01-25T15:29:54.719Z,99272.88
2023-01-25T15:32:27.255Z,99270.56
2023-01-25T15:34:59.801Z,99268.81
2023-01-25T15:37:32.371Z,99265.44
2023-01-25T15:40:05.040Z,99262.47
2023-01-25T15:42:38.403Z,99262.16
2023-01-25T15:45:11.118Z,99265.44
2023-01-25T15:47:45.660Z,99260.81
2023-01-25T15:50:19.094Z,99259.06
2023-01-25T15:52:51.211Z,99251.84
2023-01-25T15:55:27.365Z,99258.03
2023-01-25T15:58:01.227Z,99253.03
2023-01-25T16:00:33.603Z,99252.13
2023-01-25T16:03:07.587Z,99245.19
2023-01-25T16:05:39.966Z,99247.31
2023-01-25T16:08:18.783Z,99243.25
2023-01-25T16:10:51.135Z,99233.50
2023-01-25T16:13:24.928Z,99222.59
2023-01-25T16:15:57.372Z,99225.78
2023-01-25T16:18:30.648Z,99224.03
2023-01-25T16:21:02.545Z,99220.19
2023-01-25T16:23:36.978Z,99232.81
2023-01-25T16:26:26.216Z,99220.59
2023-01-25T16:28:59.436Z,99227.16
2023-01-25T16:31:33.392Z,99225.91
2023-01-25T16:34:06.141Z,99228.13
2023-01-25T16:36:39.605Z,99222.31
2023-01-25T16:39:22.389Z,99222.72
2023-01-25T16:41:56.408Z,99218.38
2023-01-25T16:44:28.772Z,99206.13
2023-01-25T16:47:01.556Z,99207.75
2023-01-25T16:49:33.768Z,99198.84
2023-01-25T16:52:07.039Z,99199.34
2023-01-25T16:54:39.656Z,99201.00
2023-01-25T16:57:20.200Z,99193.44
2023-01-25T16:59:53.429Z,99195.28
2023-01-25T17:02:25.682Z,99200.13
2023-01-25T17:04:58.541Z,99193.97
2023-01-25T17:07:30.916Z,99198.47
2023-01-25T17:10:04.796Z,99196.56
2023-01-25T17:12:37.272Z,99197.59
2023-01-25T17:15:10.454Z,99194.13
2023-01-25T17:17:42.330Z,99192.28
2023-01-25T17:20:15.660Z,99201.16
2023-01-25T17:22:51.056Z,99200.31
2023-01-25T17:25:24.445Z,99202.22
2023-01-25T17:27:56.759Z,99196.63
2023-01-25T17:30:28.714Z,99197.41
2023-01-25T17:33:01.507Z,99198.34
2023-01-25T17:35:36.470Z,99198.63
2023-01-25T17:38:08.803Z,99195.84
2023-01-25T17:40:41.581Z,99201.03
2023-01-25T17:43:13.930Z,99197.28
2023-01-25T17:45:46.969Z,99190.72
2023-01-25T17:48:19.309Z,99190.72
2023-01-25T17:51:02.820Z,99187.66
2023-01-25T17:53:34.811Z,99182.91
2023-01-25T17:56:08.932Z,99180.50
2023-01-25T17:58:41.581Z,99184.06
2023-01-25T18:01:23.955Z,99172.97
2023-01-25T18:03:56.754Z,99177.41
2023-01-25T18:06:31.711Z,99171.72
2023-01-25T18:09:06.168Z,99178.28
2023-01-25T18:11:41.171Z,99170.78
2023-01-25T18:14:16.699Z,99175.31
2023-01-25T18:16:50.860Z,99169.03
2023-01-25T18:19:23.288Z,99160.47
2023-01-25T18:21:55.205Z,99170.06
2023-01-25T18:24:35.747Z,99167.91
2023-01-25T18:27:16.643Z,99171.66
2023-01-25T18:30:01.360Z,99171.03
2023-01-25T18:32:34.167Z,99164.13
2023-01-25T18:35:06.281Z,99152.44
2023-01-25T18:37:43.856Z,99158.81
2023-01-25T18:40:17.509Z,99162.66
2023-01-25T18:42:50.648Z,99171.34
2023-01-25T18:45:24.015Z,99165.38
2023-01-25T18:47:59.536Z,99165.16
2023-01-25T18:50:53.835Z,99162.75
2023-01-25T18:53:27.807Z,99161.94
2023-01-25T18:56:02.551Z,99167.03
2023-01-25T18:58:37.409Z,99166.69
2023-01-25T19:01:18.217Z,99157.63
2023-01-25T19:03:51.942Z,99156.28
2023-01-25T19:06:25.247Z,99150.75
2023-01-25T19:08:58.891Z,99147.28
2023-01-25T19:11:30.971Z,99152.94
2023-01-25T19:14:03.734Z,99149.88
2023-01-25T19:16:35.695Z,99139.00
2023-01-25T19:19:10.131Z,99130.41
2023-01-25T19:21:42.719Z,99137.31
2023-01-25T19:24:19.564Z,99125.34
2023-01-25T19:26:54.189Z,99129.22
2023-01-25T19:29:28.927Z,99127.75
2023-01-25T19:32:01.860Z,99126.25
2023-01-25T19:34:33.772Z,99115.16
2023-01-25T19:37:07.313Z,99116.13
2023-01-25T19:39:39.633Z,99112.28
2023-01-25T19:42:11.568Z,99107.63
2023-01-25T19:44:44.867Z,99108.16
2023-01-25T19:47:17.265Z,99111.03
2023-01-25T19:49:49.151Z,99109.47
2023-01-25T19:52:22.354Z,99111.03
2023-01-25T19:54:57.466Z,99099.53
2023-01-25T19:57:30.512Z,99101.84
2023-01-25T20:00:02.490Z,99103.66
2023-01-25T20:02:38.906Z,99099.63
2023-01-25T20:05:11.588Z,99097.41
2023-01-25T20:07:43.718Z,99099.22
2023-01-25T20:10:16.276Z,99090.66
2023-01-25T20:12:49.424Z,99083.22
2023-01-25T20:15:22.110Z,99089.81
2023-01-25T20:17:55.676Z,99089.84
2023-01-25T20:20:28.263Z,99094.50
2023-01-25T20:23:00.142Z,99079.88
2023-01-25T20:25:33.072Z,99084.50
2023-01-25T20:28:05.127Z,99079.56
2023-01-25T20:30:37.925Z,99078.19
2023-01-25T20:33:11.009Z,99080.25
2023-01-25T20:35:43.977Z,99071.19
2023-01-25T20:38:16.496Z,99073.69
2023-01-25T20:40:49.580Z,99059.44
2023-01-25T20:43:23.535Z,99064.34
2023-01-25T20:45:57.810Z,99061.66
2023-01-25T20:48:36.237Z,99059.03
2023-01-25T20:51:12.795Z,99063.00
2023-01-25T20:53:46.058Z,99059.72
2023-01-25T20:56:19.274Z,99063.00
2023-01-25T20:58:53.291Z,99056.25
2023-01-25T21:01:29.573Z,99047.88
2023-01-25T21:04:02.858Z,99046.97
2023-01-25T21:06:35.254Z,99052.78
2023-01-25T21:09:08.147Z,99047.66
2023-01-25T21:11:40.539Z,99053.53
2023-01-25T21:14:13.369Z,99046.72
2023-01-25T21:16:45.312Z,99043.44
2023-01-25T21:19:18.187Z,99041.97
2023-01-25T21:21:50.866Z,99045.34
2023-01-25T21:24:22.848Z,99037.91
2023-01-25T21:26:55.716Z,99035.50
2023-01-25T21:29:29.066Z,99033.69
2023-01-25T21:32:04.773Z,99027.13
2023-01-25T21:34:37.652Z,99026.34
2023-01-25T21:37:10.400Z,99026.81
2023-01-25T21:39:42.428Z,99027.38
2023-01-25T21:42:14.795Z,99036.25
2023-01-25T21:45:05.160Z,99024.28
2023-01-25T21:47:37.916Z,99022.97
2023-01-25T21:50:29.365Z,99017.09
2023-01-25T21:53:02.508Z,99018.88
2023-01-25T21:55:34.796Z,99010.31
2023-01-25T21:58:07.638Z,99006.47
2023-01-25T22:00:39.607Z,99002.28
2023-01-25T22:03:12.424Z,98995.03
2023-01-25T22:05:44.550Z,98993.09
2023-01-25T22:08:17.890Z,98995.81
2023-01-25T22:10:50.195Z,98997.63
2023-01-25T22:13:22.961Z,98993.59
2023-01-25T22:16:02.158Z,98987.91
2023-01-25T22:18:39.461Z,98989.22
2023-01-25T22:21:18.080Z,98984.16
2023-01-25T22:23:52.119Z,98987.81
2023-01-25T22:26:26.903Z,98980.56
2023-01-25T22:29:03.660Z,98984.72
2023-01-25T22:31:36.505Z,98977.50
2023-01-25T22:34:09.440Z,98982.22
2023-01-25T22:36:41.333Z,98972.31
2023-01-25T22:39:15.318Z,98975.75
2023-01-25T22:41:47.344Z,98981.81
2023-01-25T22:44:20.274Z,98973.44
2023-01-25T22:46:53.776Z,98982.69
2023-01-25T22:49:26.591Z,98975.72
2023-01-25T22:51:59.009Z,98976.00
2023-01-25T22:54:31.915Z,98971.28
2023-01-25T22:57:03.931Z,98981.03
2023-01-25T22:59:36.677Z,98972.44
2023-01-25T23:02:08.612Z,98976.78
2023-01-25T23:04:41.379Z,98970.34
2023-01-25T23:07:18.732Z,98971.00
2023-01-25T23:09:51.941Z,98962.06
2023-01-25T23:12:23.869Z,98965.97
2023-01-25T23:14:59.420Z,98960.78
2023-01-25T23:17:50.252Z,98959.28
2023-01-25T23:20:22.173Z,98962.81
2023-01-25T23:22:54.894Z,98955.22
2023-01-25T23:25:28.191Z,98956.84
2023-01-25T23:28:00.104Z,98959.53
2023-01-25T23:30:32.941Z,98953.19
2023-01-25T23:33:04.966Z,98946.25
2023-01-25T23:35:38.090Z,98936.91
2023-01-25T23:38:15.967Z,98945.38
2023-01-25T23:40:49.164Z,98946.78
2023-01-25T23:43:21.710Z,98935.94
2023-01-25T23:45:53.606Z,98924.75
2023-01-25T23:48:27.461Z,98924.34
2023-01-25T23:50:59.889Z,98928.28
2023-01-25T23:53:35.495Z,98926.16
2023-01-25T23:56:13.907Z,98924.34
2023-01-25T23:58:47.881Z,98918.09
